Time,TemperatureF,DewpointF,PressureIn,WindDirection,WindDirectionDegrees,WindSpeedMPH,WindSpeedGustMPH,Humidity,HourlyPrecipIn,Conditions,Clouds,dailyrainin,SoftwareType,DateUTC
2013-07-29 00:14:00,68.5,66.0,30.01,West,264,1.0,1.0,91,0.00,,,0.00,weatherlink.com 1.10,2013-07-29 04:14:00,
2013-07-29 00:29:00,68.6,66.0,30.01,WSW,251,0.0,1.0,91,0.00,,,0.00,weatherlink.com 1.10,2013-07-29 04:29:00,
2013-07-29 00:44:00,68.4,66.0,30.00,ESE,123,0.0,1.0,91,0.00,,,0.00,weatherlink.com 1.10,2013-07-29 04:44:00,
2013-07-29 00:59:00,68.3,66.0,30.00,ESE,116,0.0,1.0,92,0.00,,,0.00,weatherlink.com 1.10,2013-07-29 04:59:00,
2013-07-29 01:14:00,68.3,66.0,29.99,ESE,116,0.0,1.0,92,0.00,,,0.00,weatherlink.com 1.10,2013-07-29 05:14:00,
2013-07-29 01:29:00,68.3,66.0,29.99,ESE,115,0.0,1.0,92,0.00,,,0.00,weatherlink.com 1.10,2013-07-29 05:29:00,
2013-07-29 01:44:00,68.3,66.0,29.98,NNW,346,0.0,2.0,93,0.00,,,0.00,weatherlink.com 1.10,2013-07-29 05:44:00,
2013-07-29 01:59:00,68.4,66.0,29.97,SE,127,1.0,1.0,93,0.00,,,0.00,weatherlink.com 1.10,2013-07-29 05:59:00,
2013-07-29 02:14:00,68.3,66.0,29.98,WSW,256,0.0,2.0,93,0.00,,,0.00,weatherlink.com 1.10,2013-07-29 06:14:00,
2013-07-29 02:29:00,68.3,66.0,29.97,South,178,0.0,1.0,93,0.00,,,0.00,weatherlink.com 1.10,2013-07-29 06:29:00,
2013-07-29 02:44:00,68.1,66.0,29.97,ESE,115,0.0,2.0,93,0.00,,,0.00,weatherlink.com 1.10,2013-07-29 06:44:00,
2013-07-29 02:59:00,68.1,66.0,29.97,ESE,112,0.0,1.0,93,0.00,,,0.00,weatherlink.com 1.10,2013-07-29 06:59:00,
2013-07-29 03:14:00,68.1,66.0,29.97,ESE,123,0.0,1.0,94,0.00,,,0.00,weatherlink.com 1.10,2013-07-29 07:14:00,
2013-07-29 03:29:00,68.1,66.0,29.97,ESE,117,0.0,1.0,94,0.00,,,0.00,weatherlink.com 1.10,2013-07-29 07:29:00,
2013-07-29 03:44:00,68.0,66.0,29.98,ESE,103,1.0,2.0,94,0.00,,,0.00,weatherlink.com 1.10,2013-07-29 07:44:00,
2013-07-29 03:59:00,67.9,66.0,29.99,WSW,253,0.0,3.0,94,0.00,,,0.00,weatherlink.com 1.10,2013-07-29 07:59:00,
2013-07-29 04:14:00,67.8,66.0,29.99,WSW,242,0.0,1.0,94,0.00,,,0.00,weatherlink.com 1.10,2013-07-29 08:14:00,
2013-07-29 04:29:00,67.7,66.0,29.99,SE,138,0.0,2.0,94,0.00,,,0.00,weatherlink.com 1.10,2013-07-29 08:29:00,
2013-07-29 04:44:00,67.5,66.0,29.98,West,271,0.0,1.0,94,0.00,,,0.00,weatherlink.com 1.10,2013-07-29 08:44:00,
2013-07-29 04:59:00,67.4,66.0,29.99,SSE,154,0.0,1.0,94,0.00,,,0.00,weatherlink.com 1.10,2013-07-29 08:59:00,
2013-07-29 05:14:00,67.5,66.0,29.98,SSE,153,0.0,0.0,94,0.00,,,0.00,weatherlink.com 1.10,2013-07-29 09:14:00,
2013-07-29 05:29:00,67.3,66.0,29.98,SSE,153,0.0,1.0,94,0.00,,,0.00,weatherlink.com 1.10,2013-07-29 09:29:00,
2013-07-29 05:44:00,67.5,66.0,29.98,West,273,0.0,1.0,95,0.00,,,0.00,weatherlink.com 1.10,2013-07-29 09:44:00,
2013-07-29 05:59:00,67.9,66.0,29.98,West,273,0.0,1.0,94,0.00,,,0.00,weatherlink.com 1.10,2013-07-29 09:59:00,
2013-07-29 06:14:00,68.2,67.0,29.98,West,273,0.0,1.0,94,0.00,,,0.00,weatherlink.com 1.10,2013-07-29 10:14:00,
2013-07-29 06:29:00,68.6,67.0,29.99,WNW,285,0.0,1.0,94,0.00,,,0.00,weatherlink.com 1.10,2013-07-29 10:29:00,
2013-07-29 06:44:00,68.9,67.0,30.00,WNW,289,0.0,1.0,93,0.00,,,0.00,weatherlink.com 1.10,2013-07-29 10:44:00,
2013-07-29 06:59:00,69.3,67.0,30.00,West,265,0.0,1.0,93,0.00,,,0.00,weatherlink.com 1.10,2013-07-29 10:59:00,
2013-07-29 07:14:00,69.8,67.0,29.99,WSW,258,0.0,1.0,92,0.00,,,0.00,weatherlink.com 1.10,2013-07-29 11:14:00,
2013-07-29 07:30:00,70.4,68.0,29.99,East,87,0.0,2.0,92,0.00,,,0.00,weatherlink.com 1.10,2013-07-29 11:30:00,
2013-07-29 07:45:00,71.3,68.0,29.99,ESE,121,2.0,2.0,90,0.00,,,0.00,weatherlink.com 1.10,2013-07-29 11:45:00,
2013-07-29 08:00:00,71.7,69.0,30.00,West,267,0.0,5.0,90,0.00,,,0.00,weatherlink.com 1.10,2013-07-29 12:00:00,
2013-07-29 08:15:00,72.3,69.0,30.00,East,98,1.0,4.0,89,0.00,,,0.00,weatherlink.com 1.10,2013-07-29 12:15:00,
2013-07-29 08:30:00,72.9,69.0,30.00,WSW,245,0.0,2.0,88,0.00,,,0.00,weatherlink.com 1.10,2013-07-29 12:30:00,
2013-07-29 08:45:00,73.1,69.0,30.00,South,191,0.0,6.0,86,0.00,,,0.00,weatherlink.com 1.10,2013-07-29 12:45:00,
2013-07-29 09:00:00,73.1,69.0,30.00,NE,38,0.0,3.0,87,0.00,,,0.00,weatherlink.com 1.10,2013-07-29 13:00:00,
2013-07-29 09:15:00,73.5,70.0,30.00,West,261,0.0,2.0,87,0.00,,,0.00,weatherlink.com 1.10,2013-07-29 13:15:00,
2013-07-29 09:30:00,75.8,70.0,30.00,WSW,249,0.0,4.0,82,0.00,,,0.00,weatherlink.com 1.10,2013-07-29 13:30:00,
2013-07-29 10:00:00,76.3,70.0,30.00,WSW,254,0.0,2.0,80,0.00,,,0.00,weatherlink.com 1.10,2013-07-29 14:00:00,
2013-07-29 10:15:00,77.7,71.0,30.00,ENE,74,0.0,6.0,79,0.00,,,0.00,weatherlink.com 1.10,2013-07-29 14:15:00,
2013-07-29 10:30:00,78.4,70.0,30.00,NW,310,0.0,5.0,76,0.00,,,0.00,weatherlink.com 1.10,2013-07-29 14:30:00,
2013-07-29 10:45:00,77.8,70.0,30.01,SW,223,1.0,4.0,77,0.00,,,0.00,weatherlink.com 1.10,2013-07-29 14:45:00,
2013-07-29 11:00:00,77.7,69.0,30.01,WSW,244,1.0,5.0,75,0.00,,,0.00,weatherlink.com 1.10,2013-07-29 15:00:00,
2013-07-29 11:30:00,79.4,69.0,30.01,West,272,3.0,4.0,70,0.00,,,0.00,weatherlink.com 1.10,2013-07-29 15:30:00,
2013-07-29 11:45:00,80.6,69.0,30.00,SSE,151,2.0,6.0,68,0.00,,,0.00,weatherlink.com 1.10,2013-07-29 15:45:00,
2013-07-29 12:00:00,81.9,69.0,30.00,West,280,2.0,4.0,65,0.00,,,0.00,weatherlink.com 1.10,2013-07-29 16:00:00,
2013-07-29 12:15:00,82.2,69.0,29.99,WSW,241,2.0,4.0,64,0.00,,,0.00,weatherlink.com 1.10,2013-07-29 16:15:00,
2013-07-29 12:45:00,80.6,69.0,29.99,ESE,109,3.0,3.0,68,0.00,,,0.00,weatherlink.com 1.10,2013-07-29 16:45:00,
2013-07-29 13:00:00,80.3,69.0,29.99,East,96,1.0,4.0,69,0.00,,,0.00,weatherlink.com 1.10,2013-07-29 17:00:00,
2013-07-29 13:15:00,81.5,71.0,30.00,ESE,109,4.0,5.0,70,0.00,,,0.00,weatherlink.com 1.10,2013-07-29 17:15:00,
2013-07-29 13:30:00,81.4,72.0,29.99,East,94,8.0,12.0,72,0.00,,,0.00,weatherlink.com 1.10,2013-07-29 17:30:00,
2013-07-29 13:45:00,81.5,72.0,29.99,ENE,71,2.0,9.0,73,0.00,,,0.00,weatherlink.com 1.10,2013-07-29 17:45:00,
2013-07-29 14:00:00,81.2,71.0,29.99,ESE,115,2.0,13.0,70,0.00,,,0.00,weatherlink.com 1.10,2013-07-29 18:00:00,
2013-07-29 14:15:00,82.1,67.0,29.98,WSW,242,3.0,4.0,61,0.00,,,0.00,weatherlink.com 1.10,2013-07-29 18:15:00,
2013-07-29 14:30:00,83.7,69.0,29.97,NW,313,0.0,6.0,61,0.00,,,0.00,weatherlink.com 1.10,2013-07-29 18:30:00,
2013-07-29 14:45:00,83.6,70.0,29.97,ESE,123,3.0,10.0,64,0.00,,,0.00,weatherlink.com 1.10,2013-07-29 18:45:00,
2013-07-29 15:15:00,84.8,71.0,29.96,ESE,118,0.0,6.0,64,0.00,,,0.00,weatherlink.com 1.10,2013-07-29 19:15:00,
2013-07-29 15:30:00,84.7,71.0,29.96,ESE,109,1.0,6.0,64,0.00,,,0.00,weatherlink.com 1.10,2013-07-29 19:30:00,
2013-07-29 15:45:00,85.5,71.0,29.95,WNW,289,0.0,5.0,63,0.00,,,0.00,weatherlink.com 1.10,2013-07-29 19:45:00,
2013-07-29 16:00:00,82.8,71.0,29.95,WNW,289,2.0,7.0,67,0.00,,,0.00,weatherlink.com 1.10,2013-07-29 20:00:00,
2013-07-29 16:15:00,81.9,71.0,29.95,SE,129,3.0,7.0,69,0.00,,,0.00,weatherlink.com 1.10,2013-07-29 20:15:00,
2013-07-29 16:30:00,81.4,73.0,29.95,West,275,0.0,4.0,75,0.00,,,0.00,weatherlink.com 1.10,2013-07-29 20:30:00,
2013-07-29 16:46:00,77.9,69.0,29.96,ESE,121,5.0,11.0,75,0.09,,,0.09,weatherlink.com 1.10,2013-07-29 20:46:00,
2013-07-29 17:01:00,71.6,67.0,29.95,ESE,107,0.0,5.0,85,0.31,,,0.31,weatherlink.com 1.10,2013-07-29 21:01:00,
2013-07-29 17:16:00,74.3,70.0,29.96,WSW,240,0.0,2.0,87,0.31,,,0.31,weatherlink.com 1.10,2013-07-29 21:16:00,
2013-07-29 17:31:00,75.9,71.0,29.95,SE,133,0.0,3.0,84,0.31,,,0.31,weatherlink.com 1.10,2013-07-29 21:31:00,
2013-07-29 18:01:00,77.9,71.0,29.95,ESE,123,0.0,1.0,80,0.00,,,0.31,weatherlink.com 1.10,2013-07-29 22:01:00,
2013-07-29 18:16:00,78.3,71.0,29.95,ESE,120,0.0,1.0,79,0.00,,,0.31,weatherlink.com 1.10,2013-07-29 22:16:00,
2013-07-29 18:31:00,78.0,71.0,29.95,ESE,119,0.0,1.0,80,0.00,,,0.31,weatherlink.com 1.10,2013-07-29 22:31:00,
2013-07-29 18:46:00,76.5,71.0,29.95,ESE,119,0.0,1.0,84,0.00,,,0.31,weatherlink.com 1.10,2013-07-29 22:46:00,
2013-07-29 19:01:00,75.1,71.0,29.95,WSW,240,0.0,1.0,86,0.00,,,0.31,weatherlink.com 1.10,2013-07-29 23:01:00,
2013-07-29 19:16:00,74.2,70.0,29.98,SW,226,9.0,15.0,86,0.00,,,0.31,weatherlink.com 1.10,2013-07-29 23:16:00,
2013-07-29 19:46:00,68.7,65.0,29.98,SE,136,0.0,0.0,89,0.02,,,0.33,weatherlink.com 1.10,2013-07-29 23:46:00,
2013-07-29 20:31:00,68.5,66.0,29.98,South,187,0.0,1.0,92,0.00,,,0.33,weatherlink.com 1.10,2013-07-30 00:31:00,
2013-07-29 20:46:00,68.6,67.0,30.00,WNW,284,0.0,1.0,93,0.05,,,0.38,weatherlink.com 1.10,2013-07-30 00:46:00,
2013-07-29 21:01:00,69.0,67.0,30.00,East,88,0.0,1.0,94,0.07,,,0.40,weatherlink.com 1.10,2013-07-30 01:01:00,
2013-07-29 21:16:00,69.3,68.0,30.00,WNW,288,0.0,1.0,94,0.07,,,0.40,weatherlink.com 1.10,2013-07-30 01:16:00,
2013-07-29 21:46:00,69.3,68.0,30.00,WNW,289,0.0,1.0,94,0.01,,,0.40,weatherlink.com 1.10,2013-07-30 01:46:00,
2013-07-29 22:16:00,69.6,68.0,30.00,WSW,246,0.0,1.0,94,0.00,,,0.40,weatherlink.com 1.10,2013-07-30 02:16:00,
2013-07-29 23:01:00,69.3,68.0,30.01,WSW,245,0.0,0.0,95,0.00,,,0.40,weatherlink.com 1.10,2013-07-30 03:01:00,
2013-07-29 23:16:00,68.8,67.0,30.01,WSW,246,0.0,0.0,94,0.00,,,0.40,weatherlink.com 1.10,2013-07-30 03:16:00,